Time;durP1;ratioP1;P1;durP2;ratioP2;P2;SDS_P1;SDS_P2;PMS_P1;PMS_P2;Temp;Humidity;BMP_temperature;BMP_pressure;BME280_temperature;BME280_humidity;BME280_pressure;Samples;Min_cycle;Max_cycle;Signal;HPM_P1;HPM_P2
2022/10/19 00:00:27;;;;;;;3.72;2.47;;;;;;;18.75;56.35;102903.78;5127231;28;20024;-57
2022/10/19 00:02:52;;;;;;;4.05;2.25;;;;;;;18.74;56.38;102904.78;5127407;28;20034;-56
2022/10/19 00:05:18;;;;;;;3.95;2.25;;;;;;;18.63;56.02;102894.78;5127734;28;20504;-57
2022/10/19 00:07:43;;;;;;;3.55;2.63;;;;;;;18.72;56.31;102918.34;5133671;27;20085;-55
2022/10/19 00:10:09;;;;;;;3.13;2.30;;;;;;;18.72;56.08;102915.66;5127337;28;20046;-58
2022/10/19 00:12:34;;;;;;;3.60;2.33;;;;;;;18.71;56.27;102907.69;5127486;28;20042;-57
2022/10/19 00:14:59;;;;;;;3.55;2.30;;;;;;;18.70;56.38;102905.97;5147392;27;20031;-58
2022/10/19 00:17:24;;;;;;;3.13;2.10;;;;;;;18.69;56.04;102896.13;5147467;27;20034;-58
2022/10/19 00:19:50;;;;;;;3.70;2.00;;;;;;;18.68;55.72;102897.97;5147627;27;20072;-56
2022/10/19 00:22:15;;;;;;;3.53;2.20;;;;;;;18.66;55.93;102888.31;5146733;27;20030;-58
2022/10/19 00:24:40;;;;;;;4.25;2.70;;;;;;;18.67;56.20;102898.09;5127355;28;20078;-57
2022/10/19 00:27:06;;;;;;;3.10;2.22;;;;;;;18.67;56.25;102892.72;5126764;28;20038;-58
2022/10/19 00:29:31;;;;;;;2.45;1.85;;;;;;;18.64;56.11;102893.78;5127494;28;20079;-58
2022/10/19 00:31:56;;;;;;;3.08;2.25;;;;;;;18.65;55.89;102902.75;5126416;28;20199;-56
2022/10/19 00:34:22;;;;;;;3.53;2.40;;;;;;;18.64;56.17;102899.19;5127228;28;20031;-57
2022/10/19 00:36:47;;;;;;;3.97;2.47;;;;;;;18.63;55.91;102900.16;5127356;27;20046;-57
2022/10/19 00:39:14;;;;;;;2.67;2.03;;;;;;;18.63;56.08;102897.47;5146929;27;20056;-55
2022/10/19 00:41:40;;;;;;;2.70;2.00;;;;;;;18.62;56.19;102901.16;5126697;28;20035;-58
2022/10/19 00:44:09;;;;;;;3.17;2.30;;;;;;;18.62;55.93;102901.16;5126919;28;20049;-57
2022/10/19 00:46:36;;;;;;;2.05;1.67;;;;;;;18.45;55.83;102880.03;5126385;28;20015;-57
2022/10/19 00:49:22;;;;;;;3.42;2.20;;;;;;;18.61;55.71;102901.28;5126788;28;20031;-56
2022/10/19 00:51:51;;;;;;;2.53;2.05;;;;;;;18.59;55.74;102887.91;5123760;28;20036;-57
2022/10/19 00:54:17;;;;;;;2.70;2.03;;;;;;;18.59;56.09;102884.34;5126834;28;20031;-57
2022/10/19 00:56:44;;;;;;;2.97;1.90;;;;;;;18.57;56.07;102889.88;5125088;28;20097;-55
2022/10/19 00:59:10;;;;;;;3.60;2.10;;;;;;;18.56;56.05;102889.97;5125374;28;20028;-57
2022/10/19 01:01:36;;;;;;;4.03;2.05;;;;;;;18.56;55.96;102889.97;5124481;28;20023;-58
2022/10/19 01:04:02;;;;;;;2.00;1.80;;;;;;;18.56;55.89;102889.97;5126636;28;20037;-57
2022/10/19 01:06:28;;;;;;;2.33;1.70;;;;;;;18.48;56.00;102871.72;5129841;27;20038;-57
2022/10/19 01:08:53;;;;;;;2.55;1.95;;;;;;;18.54;55.75;102882.03;5145153;27;20048;-58
2022/10/19 01:11:40;;;;;;;3.38;2.03;;;;;;;18.53;55.79;102874.91;5144801;27;20051;-58
2022/10/19 01:14:17;;;;;;;2.47;1.95;;;;;;;18.53;55.97;102880.31;5134884;27;20030;-58
2022/10/19 01:17:06;;;;;;;2.97;2.25;;;;;;;18.49;55.98;102868.91;5125650;28;20028;-58
2022/10/19 01:19:49;;;;;;;6.00;2.05;;;;;;;18.51;55.78;102879.56;5124930;28;20031;-57
2022/10/19 01:22:30;;;;;;;2.50;2.13;;;;;;;18.50;55.74;102875.16;5137869;27;20118;-58
2022/10/19 01:24:56;;;;;;;2.97;1.77;;;;;;;18.49;55.94;102882.38;5145638;27;20027;-57
2022/10/19 01:27:35;;;;;;;2.05;1.60;;;;;;;18.48;55.73;102886.06;5146372;27;20045;-58
2022/10/19 01:30:02;;;;;;;;;;;;;;;18.48;55.86;102891.44;5145881;27;20071;-58
2022/10/19 01:32:52;;;;;;;2.72;1.85;;;;;;;18.46;55.87;102882.59;5144960;27;19915;-56
2022/10/19 01:35:27;;;;;;;2.83;1.70;;;;;;;18.46;55.94;102879.06;5146751;27;20062;-56
2022/10/19 01:38:14;;;;;;;3.40;2.30;;;;;;;18.45;55.94;102880.03;5136337;27;20055;-58
2022/10/19 01:41:01;;;;;;;2.60;1.70;;;;;;;18.44;55.80;102886.41;5137223;27;20035;-58
2022/10/19 01:43:40;;;;;;;1.70;1.60;;;;;;;18.40;56.04;102882.22;5146352;27;20023;-58
2022/10/19 01:46:24;;;;;;;1.65;1.55;;;;;;;18.43;55.67;102881.97;5144686;27;20030;-57
2022/10/19 01:48:54;;;;;;;2.22;1.65;;;;;;;18.31;55.81;102856.88;5146236;27;20106;-56
2022/10/19 01:51:23;;;;;;;1.65;1.35;;;;;;;18.38;55.57;102863.47;5144599;27;20023;-57
2022/10/19 01:53:51;;;;;;;1.77;1.60;;;;;;;18.40;55.56;102872.31;5145005;27;20034;-58
2022/10/19 01:56:19;;;;;;;1.60;1.50;;;;;;;18.41;55.61;102867.78;5144507;27;20039;-58
2022/10/19 01:58:45;;;;;;;2.30;1.60;;;;;;;18.28;55.88;102843.63;5144713;27;20042;-57
2022/10/19 02:01:12;;;;;;;2.22;1.35;;;;;;;18.38;55.51;102860.78;5145495;27;20050;-55
2022/10/19 02:03:38;;;;;;;2.40;1.63;;;;;;;18.35;55.97;102847.56;5144708;27;20027;-58
2022/10/19 02:06:05;;;;;;;2.42;1.63;;;;;;;18.38;55.86;102851.84;5144456;27;20027;-55
2022/10/19 02:08:37;;;;;;;1.92;1.30;;;;;;;18.35;55.79;102849.38;5129670;27;20023;-57
2022/10/19 02:11:03;;;;;;;1.70;1.40;;;;;;;18.38;55.76;102857.25;5125037;28;20091;-56
2022/10/19 02:13:29;;;;;;;1.92;1.60;;;;;;;18.36;55.61;102849.28;5130970;27;20027;-58
2022/10/19 02:15:57;;;;;;;1.90;1.60;;;;;;;18.33;55.57;102841.44;5144267;27;20173;-57
2022/10/19 02:18:27;;;;;;;1.57;1.43;;;;;;;18.36;55.59;102848.44;5144219;27;20035;-56
2022/10/19 02:20:53;;;;;;;1.98;1.60;;;;;;;18.35;55.41;102847.56;5144132;27;20091;-57
2022/10/19 02:23:21;;;;;;;2.33;1.40;;;;;;;18.35;55.48;102846.69;5145595;27;20031;-58
2022/10/19 02:25:46;;;;;;;2.55;1.92;;;;;;;18.33;55.45;102854.03;5144179;27;20023;-57
2022/10/19 02:28:12;;;;;;;1.42;1.33;;;;;;;18.34;55.57;102853.91;5145219;27;20120;-57
2022/10/19 02:30:37;;;;;;;2.80;1.92;;;;;;;18.34;55.47;102842.28;5145118;27;20472;-56
2022/10/19 02:33:02;;;;;;;2.65;1.58;;;;;;;18.33;55.77;102849.50;5145305;27;20058;-58
2022/10/19 02:35:28;;;;;;;1.95;1.42;;;;;;;18.29;55.61;102839.94;5143990;27;20060;-58
2022/10/19 02:37:54;;;;;;;1.63;1.50;;;;;;;18.32;55.34;102837.03;5144425;27;20031;-58
2022/10/19 02:40:20;;;;;;;2.08;1.30;;;;;;;18.16;55.88;102809.56;5134505;27;20028;-55
2022/10/19 02:42:54;;;;;;;2.67;1.45;;;;;;;18.32;55.79;102841.56;5123519;28;20395;-57
2022/10/19 02:45:34;;;;;;;1.58;1.20;;;;;;;18.32;55.55;102844.25;5123260;28;20073;-57
2022/10/19 02:48:02;;;;;;;1.67;1.42;;;;;;;18.31;55.47;102847.91;5124370;28;20618;-57
2022/10/19 02:50:28;;;;;;;2.97;1.63;;;;;;;18.30;55.47;102843.50;5122917;28;20027;-55
2022/10/19 02:52:53;;;;;;;1.73;1.40;;;;;;;18.30;55.63;102846.19;5123301;28;20037;-58
2022/10/19 02:55:18;;;;;;;1.70;1.20;;;;;;;18.28;55.49;102835.56;5124419;28;20716;-58
2022/10/19 02:57:44;;;;;;;2.05;1.50;;;;;;;18.30;55.68;102840.81;5123966;28;20051;-57
2022/10/19 03:00:10;;;;;;;1.50;1.40;;;;;;;18.19;55.76;102822.78;5124313;28;20083;-59
2022/10/19 03:02:35;;;;;;;1.55;1.30;;;;;;;18.29;55.85;102848.03;5123994;28;20031;-53
2022/10/19 03:05:01;;;;;;;1.38;1.10;;;;;;;18.23;55.54;102835.91;5124572;28;20120;-56
2022/10/19 03:07:26;;;;;;;1.38;1.13;;;;;;;18.28;55.37;102846.31;5129204;27;20035;-58
2022/10/19 03:09:51;;;;;;;1.67;1.20;;;;;;;18.14;55.44;102822.28;5124175;28;20020;-57
2022/10/19 03:12:17;;;;;;;1.23;1.10;;;;;;;18.26;55.54;102848.25;5124260;28;20024;-58
2022/10/19 03:14:43;;;;;;;1.92;1.40;;;;;;;18.22;55.54;102842.28;5141306;28;20056;-56
2022/10/19 03:17:08;;;;;;;1.40;1.30;;;;;;;18.25;55.66;102854.63;5144426;27;20029;-56
2022/10/19 03:19:34;;;;;;;1.40;1.30;;;;;;;18.26;55.51;102852.78;5144879;27;20376;-57
2022/10/19 03:22:00;;;;;;;2.08;1.42;;;;;;;18.25;55.62;102849.25;5144311;27;20027;-58
2022/10/19 03:24:25;;;;;;;1.38;1.27;;;;;;;18.25;55.40;102851.94;5144761;27;20042;-58
2022/10/19 03:26:51;;;;;;;1.88;1.20;;;;;;;18.25;55.44;102854.63;5144684;27;20039;-59
2022/10/19 03:29:16;;;;;;;1.52;1.40;;;;;;;18.24;55.64;102848.38;5144803;27;20063;-58
2022/10/19 03:31:41;;;;;;;1.40;1.30;;;;;;;18.24;55.65;102847.53;5144017;27;20030;-57
2022/10/19 03:34:06;;;;;;;1.30;1.20;;;;;;;18.24;55.72;102850.22;5143461;28;20246;-57
2022/10/19 03:36:34;;;;;;;1.35;1.23;;;;;;;18.23;55.61;102852.06;5143506;27;20035;-56
2022/10/19 03:39:03;;;;;;;2.58;1.13;;;;;;;18.23;55.28;102840.44;5144616;27;20491;-58
2022/10/19 03:41:32;;;;;;;1.23;1.10;;;;;;;18.21;55.58;102834.28;5144245;27;20045;-54
2022/10/19 03:43:57;;;;;;;;;;;;;;;18.22;55.55;102834.19;5145083;27;20031;-54
2022/10/19 03:46:23;;;;;;;1.33;1.10;;;;;;;18.22;55.44;102838.69;5144001;28;19914;-56
2022/10/19 03:48:48;;;;;;;1.30;1.20;;;;;;;18.21;55.62;102840.53;5144705;27;20079;-54
2022/10/19 03:51:16;;;;;;;1.45;1.13;;;;;;;18.20;55.30;102841.50;5144175;27;20034;-57
2022/10/19 03:53:42;;;;;;;2.17;1.23;;;;;;;18.20;55.32;102841.50;5144712;27;20024;-59
2022/10/19 03:56:12;;;;;;;1.42;1.15;;;;;;;18.19;55.48;102841.66;5144219;27;20077;-55
2022/10/19 03:58:38;;;;;;;1.08;0.98;;;;;;;18.13;55.55;102824.09;5144169;27;20076;-55
2022/10/19 04:01:09;;;;;;;1.75;1.45;;;;;;;18.18;55.50;102823.75;5143888;27;20023;-53
2022/10/19 04:03:34;;;;;;;1.20;1.10;;;;;;;18.15;55.20;102818.63;5144217;27;20027;-56
2022/10/19 04:06:02;;;;;;;1.13;0.98;;;;;;;18.18;55.34;102824.63;5135765;27;20020;-57
2022/10/19 04:08:28;;;;;;;1.38;1.20;;;;;;;18.15;55.33;102816.78;5144240;27;20076;-56
2022/10/19 04:10:58;;;;;;;1.30;1.10;;;;;;;18.17;55.41;102822.03;5143961;27;20027;-54
2022/10/19 04:13:24;;;;;;;1.23;0.93;;;;;;;18.18;55.42;102824.63;5144571;27;20031;-56
2022/10/19 04:15:49;;;;;;;1.77;1.20;;;;;;;18.18;55.30;102821.94;5144083;27;20027;-56
2022/10/19 04:18:14;;;;;;;1.23;1.13;;;;;;;18.17;55.17;102813.97;5143969;27;20023;-56
2022/10/19 04:20:41;;;;;;;1.65;1.08;;;;;;;17.74;55.34;102741.88;5143778;27;20027;-56
2022/10/19 04:23:06;;;;;;;1.30;1.20;;;;;;;18.17;55.15;102814.81;5144359;27;20054;-56
2022/10/19 04:25:32;;;;;;;1.77;1.13;;;;;;;18.16;55.33;102821.19;5145187;27;20452;-55
2022/10/19 04:27:57;;;;;;;1.90;1.08;;;;;;;18.17;55.39;102816.66;5146245;27;20106;-56
2022/10/19 04:30:22;;;;;;;1.60;1.00;;;;;;;18.16;55.32;102805.03;5140983;27;20023;-57
2022/10/19 04:32:47;;;;;;;2.33;1.10;;;;;;;18.14;55.07;102807.00;5132020;27;20019;-56
2022/10/19 04:35:13;;;;;;;1.30;1.20;;;;;;;18.17;55.51;102806.75;5129149;27;20468;-57
2022/10/19 04:37:38;;;;;;;1.27;1.02;;;;;;;18.18;55.55;102808.47;5138256;27;20042;-57
2022/10/19 04:40:04;;;;;;;1.02;0.93;;;;;;;18.19;55.26;102812.03;5137586;27;20023;-56
2022/10/19 04:42:30;;;;;;;1.55;1.00;;;;;;;18.19;55.31;102812.03;5130626;27;20491;-57
2022/10/19 04:44:55;;;;;;;1.15;1.05;;;;;;;18.19;55.40;102803.94;5138087;27;20027;-57
2022/10/19 04:47:21;;;;;;;2.70;0.93;;;;;;;18.20;55.32;102814.59;5146777;27;20076;-57
2022/10/19 04:49:46;;;;;;;1.52;1.13;;;;;;;18.16;55.59;102805.03;5143068;27;20019;-56
2022/10/19 04:52:11;;;;;;;1.95;1.00;;;;;;;18.19;55.13;102809.34;5147015;27;20027;-53
2022/10/19 04:54:36;;;;;;;1.17;1.08;;;;;;;18.18;55.40;102799.53;5147192;27;20034;-55
2022/10/19 04:57:02;;;;;;;2.15;1.23;;;;;;;18.20;55.29;102808.34;5146920;27;20043;-57
2022/10/19 04:59:27;;;;;;;2.13;1.00;;;;;;;18.18;55.56;102808.47;5146811;27;20031;-55
2022/10/19 05:01:53;;;;;;;1.20;1.10;;;;;;;18.19;55.39;102796.72;5146544;27;20023;-54
2022/10/19 05:04:18;;;;;;;2.17;1.23;;;;;;;18.16;55.30;102796.09;5146341;27;20023;-54
2022/10/19 05:06:43;;;;;;;1.02;0.90;;;;;;;18.19;55.55;102809.34;5139314;27;20023;-56
2022/10/19 05:09:08;;;;;;;1.42;1.00;;;;;;;18.18;55.55;102799.53;5145664;27;20562;-55
2022/10/19 05:11:34;;;;;;;1.02;0.98;;;;;;;18.09;55.47;102789.47;5146567;27;20031;-56
2022/10/19 05:13:59;;;;;;;1.20;1.00;;;;;;;18.19;55.48;102809.34;5145206;27;20019;-54
2022/10/19 05:16:24;;;;;;;1.25;1.15;;;;;;;18.16;55.53;102804.19;5146374;27;20071;-57
2022/10/19 05:18:52;;;;;;;1.08;0.90;;;;;;;18.19;55.64;102812.03;5145258;27;20125;-57
2022/10/19 05:21:19;;;;;;;1.33;1.10;;;;;;;18.19;55.79;102812.03;5133855;27;20045;-56
2022/10/19 05:23:44;;;;;;;1.23;1.08;;;;;;;18.19;55.74;102812.88;5146659;27;20023;-56
2022/10/19 05:26:16;;;;;;;1.25;0.90;;;;;;;18.18;55.83;102819.25;5134478;27;20024;-53
2022/10/19 05:28:42;;;;;;;2.22;0.98;;;;;;;18.17;55.60;102812.13;5125722;28;20027;-56
2022/10/19 05:31:13;;;;;;;1.30;1.02;;;;;;;18.18;55.87;102813.88;5125176;28;20024;-56
2022/10/19 05:33:39;;;;;;;1.10;1.00;;;;;;;18.18;55.76;102804.91;5133886;27;20023;-57
2022/10/19 05:36:15;;;;;;;1.35;1.00;;;;;;;18.19;55.82;102814.72;5124923;28;20504;-57
2022/10/19 05:38:42;;;;;;;1.27;1.13;;;;;;;18.18;55.71;102813.88;5125527;28;20016;-57
2022/10/19 05:41:07;;;;;;;1.48;1.15;;;;;;;18.18;55.71;102812.97;5125489;28;20025;-55
2022/10/19 05:43:32;;;;;;;1.17;0.80;;;;;;;18.15;55.76;102811.41;5125521;28;20535;-57
2022/10/19 05:46:03;;;;;;;1.55;1.00;;;;;;;18.18;55.83;102815.66;5125321;28;20078;-56
2022/10/19 05:48:31;;;;;;;1.50;1.02;;;;;;;18.04;55.87;102787.13;5125366;28;20035;-57
2022/10/19 05:50:57;;;;;;;1.02;0.98;;;;;;;18.12;55.87;102802.69;5124836;28;20027;-57
2022/10/19 05:53:22;;;;;;;1.20;1.10;;;;;;;18.17;55.96;102817.50;5125456;28;20023;-57
2022/10/19 05:55:47;;;;;;;1.05;0.95;;;;;;;18.17;55.97;102816.66;5124985;28;20024;-57
2022/10/19 05:58:12;;;;;;;1.13;1.02;;;;;;;17.66;55.88;102730.81;5124994;28;20084;-57
2022/10/19 06:00:38;;;;;;;1.17;1.08;;;;;;;18.18;55.91;102829.13;5125151;28;20046;-55
2022/10/19 06:03:03;;;;;;;1.35;1.05;;;;;;;18.18;56.18;102826.44;5126768;27;20034;-56
2022/10/19 06:05:28;;;;;;;1.58;0.95;;;;;;;18.14;55.91;102822.28;5145497;27;20054;-49
2022/10/19 06:07:53;;;;;;;2.35;1.00;;;;;;;18.14;55.99;102820.47;5145381;27;20019;-56
2022/10/19 06:10:20;;;;;;;4.93;0.90;;;;;;;18.15;55.79;102824.84;5145614;27;20105;-56
2022/10/19 06:12:45;;;;;;;1.40;0.90;;;;;;;18.13;55.98;102816.03;5145763;27;20080;-54
2022/10/19 06:15:11;;;;;;;1.08;0.98;;;;;;;18.14;56.07;102817.78;5145680;27;20036;-57
2022/10/19 06:17:36;;;;;;;1.08;0.80;;;;;;;18.14;55.98;102823.16;5145035;27;20091;-56
2022/10/19 06:20:01;;;;;;;1.15;1.00;;;;;;;18.13;56.07;102821.41;5144797;27;20031;-56
2022/10/19 06:22:27;;;;;;;1.02;0.82;;;;;;;18.14;55.93;102817.78;5145276;27;20031;-55
2022/10/19 06:24:52;;;;;;;1.00;0.90;;;;;;;18.14;56.29;102823.16;5145466;27;20034;-52
2022/10/19 06:27:17;;;;;;;3.05;1.20;;;;;;;18.05;55.80;102806.81;5145000;27;20030;-56
2022/10/19 06:29:42;;;;;;;2.10;0.90;;;;;;;18.14;55.76;102831.22;5143842;27;20023;-55
2022/10/19 06:32:08;;;;;;;1.77;0.90;;;;;;;18.13;55.78;102834.00;5144618;27;20023;-54
2022/10/19 06:34:33;;;;;;;0.80;0.80;;;;;;;18.14;55.79;102836.63;5143544;27;20050;-56
2022/10/19 06:36:58;;;;;;;1.15;1.05;;;;;;;18.03;55.65;102820.41;5145018;27;20027;-56
2022/10/19 06:39:23;;;;;;;1.42;1.20;;;;;;;18.14;56.03;102839.31;5145165;27;20023;-56
2022/10/19 06:41:48;;;;;;;2.22;0.90;;;;;;;18.14;55.92;102850.06;5131900;27;20027;-55
2022/10/19 06:44:14;;;;;;;2.15;0.82;;;;;;;18.14;55.83;102847.38;5124382;28;20034;-54
2022/10/19 06:46:39;;;;;;;1.50;1.05;;;;;;;18.10;55.68;102842.34;5123987;28;20052;-55
2022/10/19 06:49:04;;;;;;;1.08;0.98;;;;;;;18.13;55.53;102850.16;5123539;28;20047;-52
2022/10/19 06:51:32;;;;;;;1.40;1.00;;;;;;;18.14;55.59;102850.06;5126609;27;20494;-50
2022/10/19 06:53:57;;;;;;;1.50;1.13;;;;;;;17.85;55.39;102800.28;5137223;27;20032;-53
2022/10/19 06:56:23;;;;;;;1.00;0.90;;;;;;;18.14;55.61;102846.53;5124014;28;20066;-53
2022/10/19 06:58:48;;;;;;;0.90;0.90;;;;;;;18.16;55.30;102848.09;5123911;28;20500;-52
2022/10/19 07:01:14;;;;;;;1.10;1.00;;;;;;;18.08;55.49;102839.75;5123978;28;20106;-52
2022/10/19 07:03:41;;;;;;;1.20;0.90;;;;;;;18.18;55.53;102850.66;5123835;28;20030;-51
2022/10/19 07:06:09;;;;;;;1.02;0.82;;;;;;;18.18;55.36;102840.78;5122930;28;20031;-53
2022/10/19 07:08:35;;;;;;;1.00;1.00;;;;;;;18.20;55.35;102857.66;5124136;28;20020;-54
2022/10/19 07:11:04;;;;;;;1.05;0.88;;;;;;;18.22;55.37;102846.78;5124144;28;20035;-56
2022/10/19 07:13:30;;;;;;;0.90;0.80;;;;;;;18.22;55.54;102853.03;5129250;28;20030;-56
2022/10/19 07:16:19;;;;;;;1.48;1.38;;;;;;;18.23;55.60;102843.13;5126696;27;20023;-56
2022/10/19 07:18:45;;;;;;;0.93;0.90;;;;;;;18.09;55.18;102802.91;5123303;28;20043;-55
2022/10/19 07:21:13;;;;;;;1.13;1.00;;;;;;;18.23;55.25;102833.22;5123811;28;20031;-53
2022/10/19 07:23:39;;;;;;;1.55;1.00;;;;;;;18.15;55.38;102814.09;5122850;28;20015;-52
2022/10/19 07:26:07;;;;;;;1.85;1.23;;;;;;;18.27;55.09;102839.22;5124120;28;20527;-54
2022/10/19 07:28:32;;;;;;;1.55;1.00;;;;;;;18.28;55.30;102834.69;5123531;28;20020;-52
2022/10/19 07:30:58;;;;;;;1.30;1.00;;;;;;;18.28;55.22;102832.84;5123753;28;20030;-53
2022/10/19 07:33:23;;;;;;;1.60;1.10;;;;;;;18.28;55.01;102835.56;5129514;28;20024;-55
2022/10/19 07:35:49;;;;;;;0.88;0.88;;;;;;;18.14;55.01;102804.31;5144418;27;20038;-49
2022/10/19 07:38:14;;;;;;;2.58;0.95;;;;;;;18.30;55.00;102840.81;5144168;27;20023;-49
2022/10/19 07:40:39;;;;;;;1.50;1.17;;;;;;;18.32;55.19;102838.88;5141281;27;20103;-52
2022/10/19 07:43:04;;;;;;;1.13;1.02;;;;;;;18.32;55.06;102826.25;5124660;28;20464;-51
2022/10/19 07:45:31;;;;;;;2.17;1.17;;;;;;;18.33;54.77;102830.66;5144259;27;20076;-53
2022/10/19 07:47:57;;;;;;;1.20;1.10;;;;;;;18.31;55.05;102823.66;5134017;28;20023;-49
2022/10/19 07:50:24;;;;;;;2.22;1.10;;;;;;;18.36;54.83;102832.28;5123773;28;20110;-53
2022/10/19 07:52:51;;;;;;;1.73;1.27;;;;;;;18.37;55.03;102837.53;5123922;28;20031;-55
2022/10/19 07:55:16;;;;;;;1.15;1.00;;;;;;;18.39;55.02;102835.59;5123972;28;20081;-55
2022/10/19 07:57:41;;;;;;;0.90;0.90;;;;;;;18.41;54.80;102848.94;5123111;28;20039;-51
2022/10/19 08:00:07;;;;;;;1.20;1.08;;;;;;;18.38;54.67;102824.91;5125398;28;20059;-53
2022/10/19 08:02:32;;;;;;;2.13;1.27;;;;;;;18.43;54.92;102834.34;5143257;27;20059;-53
2022/10/19 08:04:58;;;;;;;1.65;0.95;;;;;;;18.43;54.40;102831.66;5148105;27;20084;-53
2022/10/19 08:07:23;;;;;;;1.75;1.08;;;;;;;18.46;54.84;102839.50;5146454;27;20038;-51
2022/10/19 08:09:48;;;;;;;0.90;0.90;;;;;;;18.41;54.65;102827.38;5148033;27;20025;-52
2022/10/19 08:12:13;;;;;;;0.90;0.90;;;;;;;18.49;54.64;102846.50;5147904;27;20151;-52
2022/10/19 08:14:39;;;;;;;0.95;0.88;;;;;;;18.50;54.45;102845.53;5148101;27;20019;-51
2022/10/19 08:17:04;;;;;;;1.08;0.93;;;;;;;18.51;54.45;102841.00;5147613;27;20019;-52
2022/10/19 08:19:29;;;;;;;1.27;1.17;;;;;;;18.49;54.71;102844.66;5147987;27;20035;-52
2022/10/19 08:21:54;;;;;;;2.05;1.00;;;;;;;18.42;54.46;102835.34;5147439;27;20027;-52
2022/10/19 08:24:20;;;;;;;1.52;1.10;;;;;;;18.54;54.38;102848.84;5148048;27;20030;-55
2022/10/19 08:26:45;;;;;;;1.58;1.30;;;;;;;18.54;54.56;102857.78;5147759;27;20707;-55
2022/10/19 08:29:16;;;;;;;1.27;1.13;;;;;;;18.55;54.59;102854.09;5147501;27;20035;-55
2022/10/19 08:31:43;;;;;;;1.23;0.98;;;;;;;18.42;54.55;102821.88;5138729;27;20499;-54
2022/10/19 08:34:08;;;;;;;1.13;1.02;;;;;;;18.57;54.45;102837.84;5139406;27;20052;-52
2022/10/19 08:36:34;;;;;;;1.45;0.95;;;;;;;18.58;54.53;102840.41;5147362;27;20023;-52
2022/10/19 08:39:01;;;;;;;1.95;1.10;;;;;;;18.60;54.39;102845.66;5147441;27;20031;-49
2022/10/19 08:41:38;;;;;;;1.50;1.05;;;;;;;18.60;54.44;102841.13;5137871;27;20028;-52
2022/10/19 08:44:12;;;;;;;1.02;0.93;;;;;;;18.62;54.31;102841.88;5126961;28;20032;-53
2022/10/19 08:47:24;;;;;;;2.03;1.30;;;;;;;18.65;54.14;102840.78;5126503;28;20027;-51
2022/10/19 08:49:50;;;;;;;1.60;0.90;;;;;;;18.67;54.48;102850.44;5106341;28;20039;-50
2022/10/19 08:52:18;;;;;;;1.70;1.10;;;;;;;18.69;54.14;102843.16;5126368;28;20031;-51
2022/10/19 08:54:51;;;;;;;1.65;1.10;;;;;;;18.72;54.21;102839.34;5125700;28;20023;-53
2022/10/19 08:57:35;;;;;;;1.15;1.05;;;;;;;18.75;54.04;102838.25;5124909;28;20071;-53
2022/10/19 09:00:03;;;;;;;1.95;0.90;;;;;;;18.76;54.09;102838.13;5126535;28;20023;-53
2022/10/19 09:03:00;;;;;;;1.98;1.00;;;;;;;18.79;54.14;102837.88;5126036;28;20024;-54
2022/10/19 09:05:34;;;;;;;1.45;1.35;;;;;;;18.82;53.81;102839.47;5091547;28;20107;-52
2022/10/19 09:08:00;;;;;;;1.80;1.25;;;;;;;18.85;53.93;102834.69;5124759;28;20073;-50
2022/10/19 09:10:28;;;;;;;1.70;1.10;;;;;;;18.88;53.94;102831.75;5124832;28;20023;-51
2022/10/19 09:13:16;;;;;;;1.65;1.05;;;;;;;18.90;53.74;102827.13;5124570;28;20046;-49
2022/10/19 09:15:47;;;;;;;1.58;1.20;;;;;;;18.93;53.89;102831.41;5125078;28;20028;-48
2022/10/19 09:18:21;;;;;;;1.33;0.82;;;;;;;18.93;53.38;102816.09;5125971;28;20036;-54
2022/10/19 09:20:49;;;;;;;2.67;1.00;;;;;;;18.94;53.79;102814.25;5124459;28;20091;-55
2022/10/19 09:23:20;;;;;;;1.38;1.02;;;;;;;18.86;53.51;102792.44;5125045;27;20059;-55
2022/10/19 09:25:47;;;;;;;1.08;0.98;;;;;;;18.98;53.60;102805.78;5126125;28;20488;-52
2022/10/19 09:28:26;;;;;;;1.42;0.90;;;;;;;18.99;53.61;102801.28;5124352;28;20035;-56
2022/10/19 09:30:51;;;;;;;;;;;;;;;19.00;53.33;102797.59;5124837;28;20031;-56
2022/10/19 09:33:32;;;;;;;1.85;1.05;;;;;;;19.00;53.23;102799.44;5129125;27;19918;-56
2022/10/19 09:35:58;;;;;;;1.75;1.00;;;;;;;18.94;53.49;102785.44;5144998;27;20092;-57
2022/10/19 09:38:26;;;;;;;1.33;0.90;;;;;;;18.84;53.72;102768.31;5146373;27;20528;-57
2022/10/19 09:40:51;;;;;;;1.02;0.90;;;;;;;18.90;53.72;102772.34;5141586;27;20091;-55
2022/10/19 09:43:20;;;;;;;1.00;0.80;;;;;;;18.98;53.37;102781.53;5125687;28;20035;-55
2022/10/19 09:46:14;;;;;;;1.40;1.15;;;;;;;18.92;53.68;102768.56;5124365;28;20033;-54
2022/10/19 09:48:48;;;;;;;0.95;0.80;;;;;;;18.99;53.40;102774.31;5124854;28;20091;-52
2022/10/19 09:51:15;;;;;;;1.85;1.00;;;;;;;18.98;53.71;102777.97;5123777;27;20392;-55
2022/10/19 09:53:50;;;;;;;1.13;0.90;;;;;;;19.00;53.75;102776.03;5123891;28;20042;-55
2022/10/19 09:56:24;;;;;;;1.27;0.88;;;;;;;19.02;53.78;102768.66;5124000;28;20094;-55
2022/10/19 09:58:51;;;;;;;1.85;0.80;;;;;;;19.02;53.86;102763.25;5131797;27;20042;-53
2022/10/19 10:01:34;;;;;;;1.05;0.88;;;;;;;19.03;53.39;102765.00;5141848;27;20046;-55
2022/10/19 10:04:29;;;;;;;1.95;1.17;;;;;;;19.05;53.56;102767.56;5132152;27;20061;-55
2022/10/19 10:06:55;;;;;;;1.83;0.95;;;;;;;19.05;53.62;102764.88;5110810;28;20036;-55
2022/10/19 10:09:25;;;;;;;2.92;1.05;;;;;;;19.01;54.00;102758.88;5125151;28;20055;-54
2022/10/19 10:11:50;;;;;;;4.38;1.02;;;;;;;18.98;53.84;102753.72;5123317;28;20035;-55
2022/10/19 10:14:20;;;;;;;1.65;1.05;;;;;;;19.04;54.05;102753.22;5123537;28;20388;-54
2022/10/19 10:16:45;;;;;;;2.03;1.05;;;;;;;19.12;54.25;102763.41;5124624;28;20088;-53
2022/10/19 10:19:14;;;;;;;2.50;1.23;;;;;;;19.12;54.09;102764.25;5124703;28;20047;-54
2022/10/19 10:21:54;;;;;;;3.58;1.10;;;;;;;19.15;54.25;102761.28;5123890;28;20038;-55
2022/10/19 10:24:22;;;;;;;1.67;1.00;;;;;;;19.17;53.98;102756.63;5123828;28;20052;-54
2022/10/19 10:26:50;;;;;;;1.45;1.10;;;;;;;19.19;53.80;102754.66;5124407;28;20027;-52
2022/10/19 10:29:21;;;;;;;1.15;0.70;;;;;;;19.21;53.94;102751.84;5124413;27;20019;-54
2022/10/19 10:31:52;;;;;;;2.65;0.90;;;;;;;19.20;54.15;102752.84;5133078;27;20066;-58
2022/10/19 10:34:39;;;;;;;2.25;0.90;;;;;;;19.22;54.00;102746.31;5143413;27;20023;-58
2022/10/19 10:37:07;;;;;;;3.35;1.02;;;;;;;19.22;54.18;102746.31;5144416;27;20519;-53
2022/10/19 10:39:39;;;;;;;1.13;0.90;;;;;;;19.13;53.99;102722.81;5143761;27;20043;-56
2022/10/19 10:42:09;;;;;;;1.35;0.88;;;;;;;19.25;53.57;102733.59;5129633;27;20028;-53
2022/10/19 10:44:35;;;;;;;2.50;0.85;;;;;;;19.25;54.02;102739.84;5123108;28;20030;-55
2022/10/19 10:47:03;;;;;;;2.33;0.90;;;;;;;19.17;53.99;102735.06;5123062;28;20024;-54
2022/10/19 10:49:33;;;;;;;2.53;1.13;;;;;;;19.26;53.90;102748.78;5124487;28;20093;-54
2022/10/19 10:52:25;;;;;;;1.50;1.00;;;;;;;19.28;53.61;102746.78;5123911;28;20429;-55
2022/10/19 10:55:07;;;;;;;2.65;1.00;;;;;;;19.29;53.59;102737.75;5119587;28;20038;-52
2022/10/19 10:57:42;;;;;;;3.60;1.17;;;;;;;19.28;53.98;102739.56;5123727;27;20048;-54
2022/10/19 11:00:14;;;;;;;1.45;0.80;;;;;;;19.29;53.93;102729.66;5122978;28;20079;-54
2022/10/19 11:02:45;;;;;;;1.42;0.80;;;;;;;19.27;54.01;102727.06;5122400;28;20038;-56
2022/10/19 11:05:30;;;;;;;1.73;1.00;;;;;;;19.29;53.78;102713.47;5122996;28;20031;-53
2022/10/19 11:08:14;;;;;;;1.45;0.80;;;;;;;19.29;53.86;102708.09;5123472;28;20080;-56
2022/10/19 11:10:46;;;;;;;1.77;1.08;;;;;;;19.17;53.84;102691.06;5123064;28;20102;-54
2022/10/19 11:13:15;;;;;;;2.28;1.13;;;;;;;19.30;54.15;102709.78;5122689;28;20114;-54
2022/10/19 11:16:01;;;;;;;2.35;1.05;;;;;;;19.30;54.08;102713.34;5123174;28;20056;-54
2022/10/19 11:18:37;;;;;;;1.27;0.82;;;;;;;19.31;54.01;102701.56;5125609;28;20019;-54
2022/10/19 11:21:11;;;;;;;1.17;0.77;;;;;;;19.32;54.08;102713.19;5143271;28;20057;-54
2022/10/19 11:23:51;;;;;;;1.20;0.85;;;;;;;19.32;54.03;102713.19;5143049;28;20023;-55
2022/10/19 11:26:25;;;;;;;1.88;0.80;;;;;;;19.33;54.08;102706.84;5144576;27;20061;-55
2022/10/19 11:29:16;;;;;;;2.28;0.90;;;;;;;19.34;54.23;102695.91;5144167;28;20024;-56
2022/10/19 11:31:48;;;;;;;3.10;1.10;;;;;;;19.35;53.81;102689.53;5144440;27;20018;-56
2022/10/19 11:34:35;;;;;;;2.67;1.00;;;;;;;19.38;53.92;102685.72;5139043;27;20046;-54